Ossineke, MI (49766)

11:04 PM EDT on May 25, 2015 (GMT -0400)
Ossineke | | Change Station
CLOSE
Current Station
Personal Weather Station
Location: Michigan, MI
Elevation: 591 ft
Nearby Weather Stations

Elev 591 ft 44.96 °N, 83.45 °W | Updated 3 seconds ago

Clear
Clear
65.7 °F
Feels Like 65.7 °F
N
1.8
Wind Variable Wind from WSW
Gusts 2.5 mph

Today
High -- | Low -- °F
--% Chance of Precip.
Yesterday
High -- | Low -- °F
Precip. -- in
5:55 AM 9:06 PM
First Quarter, 54% visible
Pressure 29.86 in
Visibility 10.0 miles
Clouds Clear
Dew Point 63 °F
Humidity 91%
Rainfall 0.00 in
Snow Depth Not available.
UV 0.0 out of 12
Pollen 1.00 out of 12
Air Quality Not available.
Flu Activity Sporadic
METAR KAPN 260254Z AUTO 19004KT 10SM CLR 19/16 A2986 RMK AO2 SLP112 T01940161 51022

More Conditions Fewer Conditions

Pressure 29.86 in
Visibility 10.0 miles
Clouds Clear
Dew Point 63 °F
Humidity 91%
Rainfall 0.00 in
Snow Depth Not available.
UV 0.0 out of 12
Pollen 1.00 out of 12
Air Quality Not available.
Flu Activity Sporadic
METAR KAPN 260254Z AUTO 19004KT 10SM CLR 19/16 A2986 RMK AO2 SLP112 T01940161 51022

More Conditions Fewer Conditions

Nowcast | as of 11:00 PM EDT on May 25, 2015

At 12 am...partly cloudy. Temperature 65. Southwest winds 10 mph. At 2 am...partly cloudy. Temperature 63. Southwest winds 9 mph. At 4 am...partly cloudy. Temperature 60. Southwest winds 8 mph. At 6 am...partly cloudy. Temperature 60. Southwest winds 8 mph.

×

10-Day Weather Forecast

Almanac

Astronomy

May. 25, 2015 Rise Set
Actual Time
Civil Twilight
Nautical Twilight
Astronomical Twilight
Moon
Length of Visible Light
Length of Day
Tomorrow will be .
, % of the Moon is Illuminated

Today's Extremes

State Highs State Lows

Community

WunderPhotos

Upload Photos

1,824,245 photos uploaded!

WunderBlogs® & News

Nearby

Air Quality

  Air Quality AQ Index Pollutant
Not available.

Snow Depth

Station Depth Elevation

Earthquake Activity

City Distance Mag. Time & Date
Minimum magnitude displayed is 2.5.

Coastal Water Temperatures

Place Temperature

Stations

Nearby Weather Stations

Station Location Temp. Windchill Dew Point Humidity Wind Precip. Elev Updated Type